createdAt,value
2016-12-02T00:00:41.374Z,1001
2016-12-02T00:01:47.376Z,1001
2016-12-02T00:02:53.381Z,1002
2016-12-02T00:03:59.382Z,1001
2016-12-02T00:05:05.378Z,1002
2016-12-02T00:06:11.375Z,1001
2016-12-02T00:07:17.376Z,1002
2016-12-02T00:08:23.368Z,1002
2016-12-02T00:09:29.371Z,1001
2016-12-02T00:10:35.373Z,1001
2016-12-02T00:11:41.371Z,1002
2016-12-02T00:12:47.373Z,1002
2016-12-02T00:13:53.370Z,1002
2016-12-02T00:14:59.367Z,1002
2016-12-02T00:16:05.369Z,1002
2016-12-02T00:18:21.500Z,1002
2016-12-02T00:19:27.490Z,1002
2016-12-02T00:20:33.488Z,1002
2016-12-02T00:21:39.495Z,1002
2016-12-02T00:22:45.497Z,1002
2016-12-02T00:23:51.493Z,1002
2016-12-02T00:24:57.482Z,1002
2016-12-02T00:26:03.485Z,1002
2016-12-02T00:27:09.483Z,1002
2016-12-02T00:28:15.481Z,1002
2016-12-02T00:29:21.476Z,1002
2016-12-02T00:30:27.480Z,1002
2016-12-02T00:31:33.478Z,1002
2016-12-02T00:32:39.471Z,1002
2016-12-02T00:33:45.466Z,1002
2016-12-02T00:34:51.468Z,1002
2016-12-02T00:35:57.466Z,1002
2016-12-02T00:37:03.467Z,1002
2016-12-02T00:38:09.470Z,1002
2016-12-02T00:39:15.474Z,1002
2016-12-02T00:40:21.473Z,1002
2016-12-02T00:41:27.465Z,1002
2016-12-02T00:42:33.472Z,1002
2016-12-02T00:43:39.458Z,1002
2016-12-02T00:44:45.468Z,1002
2016-12-02T00:45:51.461Z,1002
2016-12-02T00:46:57.456Z,1002
2016-12-02T00:48:03.458Z,1002
2016-12-02T00:49:09.455Z,1002
2016-12-02T00:50:15.454Z,1002
2016-12-02T00:51:21.453Z,1002
2016-12-02T00:52:27.458Z,1002
2016-12-02T00:53:33.451Z,1002
2016-12-02T00:54:39.457Z,1002
2016-12-02T00:55:45.460Z,1002
2016-12-02T00:56:51.468Z,1002
2016-12-02T00:57:57.459Z,1002
2016-12-02T00:59:03.461Z,1002
2016-12-02T01:00:09.463Z,1002
2016-12-02T01:01:15.461Z,1002
2016-12-02T01:02:21.456Z,1002
2016-12-02T01:03:27.455Z,1002
2016-12-02T01:04:33.459Z,1002
2016-12-02T01:05:39.454Z,1002
2016-12-02T01:06:45.454Z,1002
2016-12-02T01:07:51.452Z,1002
2016-12-02T01:08:57.446Z,1002
2016-12-02T01:10:03.446Z,1002
2016-12-02T01:11:09.440Z,1002
2016-12-02T01:12:15.444Z,1002
2016-12-02T01:13:21.437Z,1002
2016-12-02T01:14:27.439Z,1002
2016-12-02T01:15:33.437Z,1002
2016-12-02T01:16:39.444Z,1002
2016-12-02T01:17:45.436Z,1002
2016-12-02T01:18:51.433Z,1002
2016-12-02T01:19:56.680Z,1002
2016-12-02T01:21:02.684Z,1002
2016-12-02T01:22:08.678Z,1002
2016-12-02T01:23:14.680Z,1002
2016-12-02T01:24:20.685Z,1003
2016-12-02T01:25:26.690Z,1003
2016-12-02T01:26:32.680Z,1003
2016-12-02T01:27:38.683Z,1003
2016-12-02T01:28:44.682Z,1003
2016-12-02T01:29:50.678Z,1003
2016-12-02T01:30:56.687Z,1003
2016-12-02T01:32:02.686Z,1002
2016-12-02T01:33:08.680Z,1003
2016-12-02T01:34:14.680Z,1003
2016-12-02T01:35:20.676Z,1003
2016-12-02T01:36:26.677Z,1003
2016-12-02T01:37:32.682Z,1003
2016-12-02T01:38:38.678Z,1003
2016-12-02T01:39:44.678Z,1003
2016-12-02T01:40:50.677Z,1003
2016-12-02T01:41:56.680Z,1003
2016-12-02T01:43:02.680Z,1003
2016-12-02T01:44:08.679Z,1003
2016-12-02T01:45:14.681Z,1003
2016-12-02T01:46:20.685Z,1003
2016-12-02T01:47:26.681Z,1003
2016-12-02T01:48:32.673Z,1003
2016-12-02T01:49:38.678Z,1003
2016-12-02T01:50:44.884Z,1003
2016-12-02T01:51:50.884Z,1003
2016-12-02T01:54:07.010Z,1003
2016-12-02T01:55:13.005Z,1003
2016-12-02T01:56:19.004Z,1003
2016-12-02T01:57:25.007Z,1003
2016-12-02T01:58:31.006Z,1003
2016-12-02T01:59:37.002Z,1003
2016-12-02T02:00:43.002Z,1003
2016-12-02T02:01:49.000Z,1003
2016-12-02T02:02:55.198Z,1003
2016-12-02T02:04:01.200Z,1003
2016-12-02T02:05:07.194Z,1003
2016-12-02T02:06:13.195Z,1003
2016-12-02T02:07:19.191Z,1003
2016-12-02T02:08:25.187Z,1003
2016-12-02T02:09:31.181Z,1003
2016-12-02T02:10:37.180Z,1003
2016-12-02T02:11:43.180Z,1003
2016-12-02T02:12:49.177Z,1003
2016-12-02T02:13:55.182Z,1003
2016-12-02T02:15:01.183Z,1003
2016-12-02T02:16:07.189Z,1003
2016-12-02T02:17:13.176Z,1003
2016-12-02T02:18:19.171Z,1003
2016-12-02T02:19:25.163Z,1003
2016-12-02T02:20:31.164Z,1003
2016-12-02T02:21:37.165Z,1003
2016-12-02T02:22:43.160Z,1003
2016-12-02T02:23:49.163Z,1003
2016-12-02T02:24:55.162Z,1003
2016-12-02T02:26:01.159Z,1003
2016-12-02T02:27:07.159Z,1003
2016-12-02T02:28:12.418Z,1003
2016-12-02T02:29:18.412Z,1003
2016-12-02T02:30:24.416Z,1003
2016-12-02T02:31:30.423Z,1003
2016-12-02T02:32:36.424Z,1003
2016-12-02T02:33:42.415Z,1003
2016-12-02T02:35:57.121Z,1003
2016-12-02T02:37:03.115Z,1004
2016-12-02T02:38:09.213Z,1004
2016-12-02T02:39:15.221Z,1004
2016-12-02T02:40:21.216Z,1004
2016-12-02T02:41:27.212Z,1004
2016-12-02T02:42:33.207Z,1004
2016-12-02T02:43:39.212Z,1004
2016-12-02T02:44:45.209Z,1004
2016-12-02T02:45:51.205Z,1004
2016-12-02T02:46:57.199Z,1004
2016-12-02T02:48:03.200Z,1004
2016-12-02T02:49:09.197Z,1004
2016-12-02T02:50:15.195Z,1004
2016-12-02T02:51:21.199Z,1004
2016-12-02T02:52:27.194Z,1004
2016-12-02T02:53:33.186Z,1004
2016-12-02T02:54:39.189Z,1004
2016-12-02T02:55:45.191Z,1004
2016-12-02T02:56:51.193Z,1004
2016-12-02T02:57:57.185Z,1004
2016-12-02T02:59:03.184Z,1004
2016-12-02T03:00:09.181Z,1004
2016-12-02T03:01:15.182Z,1004
2016-12-02T03:02:20.076Z,1004
2016-12-02T03:03:26.077Z,1004
2016-12-02T03:04:32.072Z,1004
2016-12-02T03:05:38.075Z,1004
2016-12-02T03:06:44.072Z,1004
2016-12-02T03:07:50.066Z,1004
2016-12-02T03:08:56.059Z,1004
2016-12-02T03:10:02.064Z,1004
2016-12-02T03:11:08.055Z,1004
2016-12-02T03:12:14.058Z,1004
2016-12-02T03:13:20.061Z,1004
2016-12-02T03:14:26.065Z,1004
2016-12-02T03:15:32.058Z,1004
2016-12-02T03:16:38.063Z,1004
2016-12-02T03:17:44.066Z,1004
2016-12-02T03:18:50.065Z,1004
2016-12-02T03:19:56.062Z,1004
2016-12-02T03:21:02.061Z,1004
2016-12-02T03:22:08.058Z,1004
2016-12-02T03:23:14.055Z,1004
2016-12-02T03:24:20.060Z,1004
2016-12-02T03:25:26.058Z,1005
2016-12-02T03:26:32.057Z,1004
2016-12-02T03:27:38.052Z,1004
2016-12-02T03:29:51.862Z,1004
2016-12-02T03:30:57.855Z,1005
2016-12-02T03:32:03.855Z,1005
2016-12-02T03:33:09.863Z,1004
2016-12-02T03:34:15.861Z,1004
2016-12-02T03:35:21.858Z,1004
2016-12-02T03:36:27.852Z,1005
2016-12-02T03:37:33.855Z,1005
2016-12-02T03:38:39.852Z,1005
2016-12-02T03:39:45.853Z,1005
2016-12-02T03:40:51.849Z,1004
2016-12-02T03:41:57.849Z,1005
2016-12-02T03:43:03.845Z,1005
2016-12-02T03:44:09.843Z,1005
2016-12-02T03:45:15.835Z,1004
2016-12-02T03:46:21.838Z,1004
2016-12-02T03:47:27.830Z,1005
2016-12-02T03:49:43.959Z,1005
2016-12-02T03:50:49.946Z,1005
2016-12-02T03:51:55.945Z,1005
2016-12-02T03:53:01.948Z,1005
2016-12-02T03:54:07.944Z,1005
2016-12-02T03:55:13.939Z,1005
2016-12-02T03:56:19.932Z,1005
2016-12-02T03:57:25.934Z,1005
2016-12-02T03:58:31.931Z,1005
2016-12-02T03:59:37.932Z,1005
2016-12-02T04:00:43.928Z,1005
2016-12-02T04:01:49.934Z,1005
2016-12-02T04:02:55.933Z,1005
2016-12-02T04:06:22.155Z,1005
2016-12-02T04:07:28.148Z,1005
2016-12-02T04:08:34.144Z,1005
2016-12-02T04:09:40.148Z,1005
2016-12-02T04:10:46.143Z,1005
2016-12-02T04:11:52.142Z,1005
2016-12-02T04:12:57.389Z,1005
2016-12-02T04:14:03.392Z,1005
2016-12-02T04:15:09.409Z,1005
2016-12-02T04:16:15.389Z,1005
2016-12-02T04:18:28.998Z,1005
2016-12-02T04:19:34.993Z,1005
2016-12-02T04:20:40.990Z,1005
2016-12-02T04:21:46.998Z,1005
2016-12-02T04:22:52.997Z,1005
2016-12-02T04:23:58.997Z,1005
2016-12-02T04:25:04.989Z,1005
2016-12-02T04:26:10.994Z,1005
2016-12-02T04:27:16.990Z,1005
2016-12-02T04:28:22.987Z,1005
2016-12-02T04:29:28.982Z,1005
2016-12-02T04:30:34.987Z,1005
2016-12-02T04:31:40.980Z,1005
2016-12-02T04:32:46.978Z,1005
2016-12-02T04:33:52.974Z,1005
2016-12-02T04:34:58.974Z,1005
2016-12-02T04:36:04.968Z,1005
2016-12-02T04:37:10.971Z,1005
2016-12-02T04:38:17.175Z,1006
2016-12-02T04:39:23.177Z,1005
2016-12-02T04:40:29.173Z,1006
2016-12-02T04:41:35.180Z,1005
2016-12-02T04:42:41.177Z,1005
2016-12-02T04:43:47.171Z,1006
2016-12-02T04:44:53.366Z,1006
2016-12-02T04:47:11.739Z,1006
2016-12-02T04:48:17.732Z,1005
2016-12-02T04:49:23.731Z,1006
2016-12-02T04:50:29.739Z,1006
2016-12-02T04:51:35.741Z,1006
2016-12-02T04:52:41.733Z,1006
2016-12-02T04:53:47.726Z,1006
2016-12-02T04:54:53.730Z,1006
2016-12-02T04:55:59.727Z,1006
2016-12-02T04:57:05.728Z,1006
2016-12-02T04:58:11.724Z,1006
2016-12-02T04:59:17.731Z,1006
2016-12-02T05:00:23.726Z,1006
2016-12-02T05:01:29.724Z,1006
2016-12-02T05:02:34.974Z,1006
2016-12-02T05:03:40.975Z,1006
2016-12-02T05:04:46.971Z,1006
2016-12-02T05:05:52.976Z,1006
2016-12-02T05:06:58.977Z,1006
2016-12-02T05:08:04.979Z,1006
2016-12-02T05:09:10.974Z,1006
2016-12-02T05:10:16.974Z,1006
2016-12-02T05:11:22.968Z,1006
2016-12-02T05:12:28.961Z,1006
2016-12-02T05:13:34.963Z,1006
2016-12-02T05:14:40.963Z,1006
2016-12-02T05:15:46.957Z,1006
2016-12-02T05:16:52.963Z,1006
2016-12-02T05:17:58.959Z,1006
2016-12-02T05:19:04.956Z,1006
2016-12-02T05:20:10.951Z,1006
2016-12-02T05:21:16.955Z,1006
2016-12-02T05:22:22.954Z,1006
2016-12-02T05:23:28.959Z,1006
2016-12-02T05:24:34.958Z,1006
2016-12-02T05:25:40.964Z,1006
2016-12-02T05:26:46.955Z,1006
2016-12-02T05:27:52.958Z,1006
2016-12-02T05:28:58.961Z,1006
2016-12-02T05:30:04.959Z,1006
2016-12-02T05:31:10.950Z,1006
2016-12-02T05:32:16.954Z,1006
2016-12-02T05:33:22.958Z,1006
2016-12-02T05:34:28.955Z,1006
2016-12-02T05:35:34.956Z,1006
2016-12-02T05:36:40.956Z,1006
2016-12-02T05:37:46.953Z,1006
2016-12-02T05:38:52.947Z,1006
2016-12-02T05:39:58.942Z,1006
2016-12-02T05:41:04.947Z,1006
2016-12-02T05:42:10.950Z,1006
2016-12-02T05:43:16.951Z,1007
2016-12-02T05:44:22.950Z,1007
2016-12-02T05:45:28.957Z,1007
2016-12-02T05:46:34.958Z,1006
2016-12-02T05:47:40.947Z,1007
2016-12-02T05:48:46.945Z,1007
2016-12-02T05:49:52.945Z,1007
2016-12-02T05:50:58.940Z,1007
2016-12-02T05:52:04.938Z,1007
2016-12-02T05:53:10.943Z,1007
2016-12-02T05:54:16.950Z,1007
2016-12-02T05:55:22.942Z,1007
2016-12-02T05:57:42.411Z,1007
2016-12-02T05:58:48.399Z,1007
2016-12-02T05:59:54.397Z,1007
2016-12-02T06:01:00.404Z,1007
2016-12-02T06:02:06.396Z,1007
2016-12-02T06:03:12.397Z,1007
2016-12-02T06:04:18.388Z,1007
2016-12-02T06:05:24.393Z,1007
2016-12-02T06:06:30.388Z,1007
2016-12-02T06:07:36.385Z,1007
2016-12-02T06:08:42.384Z,1007
2016-12-02T06:09:48.397Z,1007
2016-12-02T06:10:54.391Z,1007
2016-12-02T06:12:00.385Z,1007
2016-12-02T06:13:06.386Z,1007
2016-12-02T06:14:12.383Z,1007
2016-12-02T06:15:18.385Z,1007
2016-12-02T06:16:24.387Z,1007
2016-12-02T06:17:30.385Z,1007
2016-12-02T06:18:36.388Z,1007
2016-12-02T06:19:42.390Z,1007
2016-12-02T06:20:48.389Z,1007
2016-12-02T06:21:54.385Z,1007
2016-12-02T06:23:00.379Z,1007
2016-12-02T06:25:19.835Z,1007
2016-12-02T06:26:25.831Z,1007
2016-12-02T06:27:31.828Z,1007
2016-12-02T06:28:37.838Z,1007
2016-12-02T06:29:43.836Z,1007
2016-12-02T06:30:49.834Z,1007
2016-12-02T06:31:55.830Z,1007
2016-12-02T06:33:01.836Z,1007
2016-12-02T06:34:07.830Z,1007
2016-12-02T06:35:13.829Z,1007
2016-12-02T06:36:19.832Z,1007
2016-12-02T06:37:25.830Z,1007
2016-12-02T06:38:31.826Z,1007
2016-12-02T06:39:37.823Z,1007
2016-12-02T06:40:43.821Z,1007
2016-12-02T06:41:49.823Z,1007
2016-12-02T06:42:55.818Z,1007
2016-12-02T06:44:02.026Z,1007
2016-12-02T06:45:08.028Z,1007
2016-12-02T06:46:14.028Z,1008
2016-12-02T06:47:20.023Z,1008
2016-12-02T06:48:26.025Z,1008
2016-12-02T06:49:32.018Z,1008
2016-12-02T06:50:38.012Z,1008
2016-12-02T06:51:44.014Z,1008
2016-12-02T06:52:50.013Z,1008
2016-12-02T06:53:56.008Z,1007
2016-12-02T06:55:02.017Z,1008
2016-12-02T06:56:08.016Z,1008
2016-12-02T06:57:14.012Z,1008
2016-12-02T06:58:20.007Z,1008
2016-12-02T06:59:26.011Z,1008
2016-12-02T07:00:32.003Z,1008
2016-12-02T07:01:38.007Z,1008
2016-12-02T07:02:44.010Z,1008
2016-12-02T07:03:50.018Z,1008
2016-12-02T07:04:56.008Z,1008
2016-12-02T07:06:02.012Z,1008
2016-12-02T07:07:08.015Z,1008
2016-12-02T07:08:14.013Z,1008
2016-12-02T07:09:20.002Z,1008
2016-12-02T07:10:26.003Z,1008
2016-12-02T07:11:32.006Z,1008
2016-12-02T07:12:38.001Z,1008
2016-12-02T07:13:44.006Z,1008
2016-12-02T07:14:50.005Z,1008
2016-12-02T07:15:56.000Z,1008
2016-12-02T07:17:02.001Z,1008
2016-12-02T07:19:16.703Z,1008
2016-12-02T07:20:22.697Z,1008
2016-12-02T07:21:28.694Z,1008
2016-12-02T07:22:34.695Z,1008
2016-12-02T07:23:40.695Z,1008
2016-12-02T07:24:46.691Z,1008
2016-12-02T07:25:52.685Z,1008
2016-12-02T07:26:58.688Z,1008
2016-12-02T07:28:04.685Z,1008
2016-12-02T07:29:10.682Z,1008
2016-12-02T07:30:16.680Z,1008
2016-12-02T07:31:22.684Z,1008
2016-12-02T07:32:28.681Z,1008
2016-12-02T07:33:34.679Z,1008
2016-12-02T07:34:40.673Z,1008
2016-12-02T07:35:46.674Z,1008
2016-12-02T07:36:52.670Z,1008
2016-12-02T07:37:58.678Z,1008
2016-12-02T07:39:04.676Z,1008
2016-12-02T07:40:10.680Z,1008
2016-12-02T07:41:16.667Z,1009
2016-12-02T07:42:22.671Z,1009
2016-12-02T07:43:28.674Z,1009
2016-12-02T07:44:34.665Z,1009
2016-12-02T07:45:40.664Z,1009
2016-12-02T07:46:46.664Z,1009
2016-12-02T07:47:52.659Z,1009
2016-12-02T07:48:58.665Z,1009
2016-12-02T07:50:04.664Z,1009
2016-12-02T07:51:10.661Z,1009
2016-12-02T07:52:16.658Z,1009
2016-12-02T07:53:22.659Z,1009
2016-12-02T07:54:28.652Z,1009
2016-12-02T07:55:34.653Z,1009
2016-12-02T07:56:40.656Z,1009
2016-12-02T07:57:46.662Z,1009
2016-12-02T07:58:52.652Z,1009
2016-12-02T07:59:58.654Z,1009
2016-12-02T08:01:04.656Z,1009
2016-12-02T08:02:10.652Z,1009
2016-12-02T08:03:16.649Z,1009
2016-12-02T08:04:22.651Z,1009
2016-12-02T08:05:28.651Z,1009
2016-12-02T08:06:34.643Z,1009
2016-12-02T08:07:40.640Z,1009
2016-12-02T08:08:46.637Z,1009
2016-12-02T08:09:52.636Z,1009
2016-12-02T08:10:58.641Z,1009
2016-12-02T08:13:14.742Z,1009
2016-12-02T08:14:20.734Z,1009
2016-12-02T08:15:26.732Z,1009
2016-12-02T08:16:32.746Z,1009
2016-12-02T08:17:38.751Z,1009
2016-12-02T08:18:44.739Z,1009
2016-12-02T08:19:50.732Z,1009
2016-12-02T08:20:56.741Z,1009
2016-12-02T08:22:02.744Z,1009
2016-12-02T08:23:08.731Z,1009
2016-12-02T08:24:14.728Z,1009
2016-12-02T08:25:20.732Z,1009
2016-12-02T08:26:26.730Z,1009
2016-12-02T08:27:32.726Z,1009
2016-12-02T08:28:38.726Z,1009
2016-12-02T08:29:44.733Z,1009
2016-12-02T08:30:50.727Z,1009
2016-12-02T08:31:56.729Z,1009
2016-12-02T08:33:02.730Z,1009
2016-12-02T08:34:08.732Z,1009
2016-12-02T08:35:14.726Z,1010
2016-12-02T08:36:20.732Z,1009
2016-12-02T08:37:26.728Z,1009
2016-12-02T08:38:32.721Z,1010
2016-12-02T08:39:38.721Z,1010
2016-12-02T08:40:44.723Z,1010
2016-12-02T08:41:50.722Z,1010
2016-12-02T08:42:56.734Z,1010
2016-12-02T08:44:02.740Z,1010
2016-12-02T08:45:08.736Z,1010
2016-12-02T08:46:14.724Z,1010
2016-12-02T08:47:20.729Z,1010
2016-12-02T08:48:26.720Z,1010
2016-12-02T08:49:32.723Z,1010
2016-12-02T08:50:38.726Z,1010
2016-12-02T08:51:44.735Z,1010
2016-12-02T08:52:50.725Z,1010
2016-12-02T08:53:56.726Z,1010
2016-12-02T08:55:02.727Z,1010
2016-12-02T08:56:08.726Z,1010
2016-12-02T08:57:14.717Z,1010
2016-12-02T08:58:20.719Z,1010
2016-12-02T08:59:26.722Z,1010
2016-12-02T09:00:32.717Z,1010
2016-12-02T09:01:38.716Z,1010
2016-12-02T09:02:44.714Z,1010
2016-12-02T09:03:50.711Z,1010
2016-12-02T09:04:56.707Z,1010
2016-12-02T09:06:02.701Z,1010
2016-12-02T09:08:17.412Z,1010
2016-12-02T09:09:23.405Z,1010
2016-12-02T09:10:29.404Z,1010
2016-12-02T09:11:35.415Z,1010
2016-12-02T09:12:41.413Z,1010
2016-12-02T09:13:47.413Z,1010
2016-12-02T09:14:53.405Z,1010
2016-12-02T09:15:59.411Z,1010
2016-12-02T09:17:05.408Z,1010
2016-12-02T09:18:11.408Z,1010
2016-12-02T09:19:17.482Z,1010
2016-12-02T09:20:23.471Z,1010
2016-12-02T09:21:29.466Z,1010
2016-12-02T09:22:35.462Z,1010
2016-12-02T09:23:41.457Z,1010
2016-12-02T09:24:47.456Z,1010
2016-12-02T09:25:53.453Z,1010
2016-12-02T09:26:59.457Z,1010
2016-12-02T09:28:05.461Z,1010
2016-12-02T09:29:11.459Z,1010
2016-12-02T09:30:17.457Z,1010
2016-12-02T09:31:23.462Z,1010
2016-12-02T09:32:29.458Z,1010
2016-12-02T09:33:35.449Z,1010
2016-12-02T09:34:41.452Z,1010
2016-12-02T09:35:47.451Z,1010
2016-12-02T09:36:53.449Z,1010
2016-12-02T09:37:59.459Z,1010
2016-12-02T09:39:05.458Z,1010
2016-12-02T09:40:11.456Z,1010
2016-12-02T09:41:17.451Z,1010
2016-12-02T09:42:23.456Z,1010
2016-12-02T09:43:29.447Z,1010
2016-12-02T09:44:35.451Z,1010
2016-12-02T09:45:41.455Z,1010
2016-12-02T09:46:47.531Z,1010
2016-12-02T09:47:53.523Z,1010
2016-12-02T09:48:59.528Z,1010
2016-12-02T09:50:05.533Z,1010
2016-12-02T09:51:11.533Z,1010
2016-12-02T09:52:17.523Z,1010
2016-12-02T09:53:23.527Z,1010
2016-12-02T09:54:29.532Z,1010
2016-12-02T09:55:35.525Z,1010
2016-12-02T09:56:41.524Z,1010
2016-12-02T09:57:52.911Z,1010
2016-12-02T10:00:07.638Z,1010
2016-12-02T10:01:13.633Z,1010
2016-12-02T10:02:19.629Z,1010
2016-12-02T10:03:25.635Z,1010
2016-12-02T10:04:31.631Z,1010
2016-12-02T10:05:37.629Z,1010
2016-12-02T10:06:43.621Z,1010
2016-12-02T10:08:57.252Z,1010
2016-12-02T10:10:03.246Z,1011
2016-12-02T10:11:09.340Z,1010
2016-12-02T10:12:15.345Z,1010
2016-12-02T10:13:21.344Z,1011
2016-12-02T10:14:27.341Z,1011
2016-12-02T10:15:33.334Z,1010
2016-12-02T10:16:39.340Z,1011
2016-12-02T10:17:45.335Z,1011
2016-12-02T10:18:51.337Z,1011
2016-12-02T10:19:57.331Z,1011
2016-12-02T10:21:03.331Z,1011
2016-12-02T10:22:09.533Z,1010
2016-12-02T10:23:15.528Z,1011
2016-12-02T10:24:21.525Z,1011
2016-12-02T10:25:27.525Z,1011
2016-12-02T10:26:33.521Z,1011
2016-12-02T10:27:39.523Z,1011
2016-12-02T10:28:45.526Z,1011
2016-12-02T10:29:51.528Z,1011
2016-12-02T10:30:57.524Z,1011
2016-12-02T10:32:03.530Z,1011
2016-12-02T10:33:09.526Z,1011
2016-12-02T10:34:15.522Z,1011
2016-12-02T10:36:31.662Z,1011
2016-12-02T10:37:37.656Z,1011
2016-12-02T10:38:43.657Z,1011
2016-12-02T10:39:49.665Z,1011
2016-12-02T10:40:55.664Z,1011
2016-12-02T10:42:01.663Z,1011
2016-12-02T10:43:07.656Z,1011
2016-12-02T10:44:13.661Z,1011
2016-12-02T10:45:19.661Z,1011
2016-12-02T10:46:25.664Z,1011
2016-12-02T10:47:31.662Z,1011
2016-12-02T10:48:37.666Z,1011
2016-12-02T10:49:43.666Z,1011
2016-12-02T10:50:49.666Z,1011
2016-12-02T10:51:55.664Z,1011
2016-12-02T10:53:01.666Z,1011
2016-12-02T10:54:07.662Z,1011
2016-12-02T10:55:13.669Z,1011
2016-12-02T10:56:19.673Z,1011
2016-12-02T10:57:25.675Z,1011
2016-12-02T10:59:42.914Z,1011
2016-12-02T11:00:48.913Z,1011
2016-12-02T11:01:54.913Z,1011
2016-12-02T11:03:00.942Z,1011
2016-12-02T11:04:06.921Z,1011
2016-12-02T11:05:12.920Z,1011
2016-12-02T11:06:18.916Z,1011
2016-12-02T11:07:24.174Z,1011
2016-12-02T11:08:30.173Z,1011
2016-12-02T11:09:36.175Z,1011
2016-12-02T11:10:42.171Z,1011
2016-12-02T11:11:48.176Z,1011
2016-12-02T11:12:54.175Z,1011
2016-12-02T11:14:00.177Z,1011
2016-12-02T11:15:06.174Z,1011
2016-12-02T11:16:12.177Z,1011
2016-12-02T11:17:18.176Z,1011
2016-12-02T11:18:24.180Z,1011
2016-12-02T11:19:30.185Z,1011
2016-12-02T11:20:36.189Z,1011
2016-12-02T11:21:42.188Z,1011
2016-12-02T11:22:48.195Z,1011
2016-12-02T11:23:54.192Z,1011
2016-12-02T11:25:00.187Z,1011
2016-12-02T11:26:06.191Z,1011
2016-12-02T11:27:12.193Z,1011
2016-12-02T11:29:30.583Z,1011
2016-12-02T11:30:36.580Z,1011
2016-12-02T11:31:42.579Z,1011
2016-12-02T11:32:48.590Z,1011
2016-12-02T11:33:54.592Z,1011
2016-12-02T11:36:14.096Z,1011
2016-12-02T11:37:20.144Z,1011
2016-12-02T11:38:26.141Z,1011
2016-12-02T11:39:32.152Z,1011
2016-12-02T11:40:38.153Z,1011
2016-12-02T11:41:44.154Z,1011
2016-12-02T11:42:50.151Z,1011
2016-12-02T11:43:56.158Z,1011
2016-12-02T11:45:02.155Z,1011
2016-12-02T11:46:08.155Z,1011
2016-12-02T11:47:14.152Z,1011
2016-12-02T11:48:20.158Z,1011
2016-12-02T11:49:26.157Z,1011
2016-12-02T11:50:32.156Z,1011
2016-12-02T11:51:38.155Z,1011
2016-12-02T11:52:44.160Z,1011
2016-12-02T11:53:50.158Z,1011
2016-12-02T11:54:56.164Z,1011
2016-12-02T11:56:02.170Z,1011
2016-12-02T11:57:08.174Z,1011
2016-12-02T11:58:14.170Z,1011
2016-12-02T11:59:20.176Z,1011
2016-12-02T12:00:26.174Z,1011
2016-12-02T12:01:32.170Z,1011
2016-12-02T12:02:38.169Z,1011
2016-12-02T12:03:44.170Z,1011
2016-12-02T12:04:50.170Z,1011
2016-12-02T12:05:56.178Z,1011
2016-12-02T12:07:02.177Z,1011
2016-12-02T12:08:08.184Z,1011
2016-12-02T12:09:14.175Z,1011
2016-12-02T12:10:20.182Z,1011
2016-12-02T12:11:26.177Z,1011
2016-12-02T12:12:32.182Z,1011
2016-12-02T12:13:38.187Z,1011
2016-12-02T12:14:44.194Z,1011
2016-12-02T12:15:50.189Z,1011
2016-12-02T12:16:56.191Z,1011
2016-12-02T12:18:02.196Z,1011
2016-12-02T12:19:08.215Z,1011
2016-12-02T12:20:14.187Z,1011
2016-12-02T12:21:20.193Z,1011
2016-12-02T12:22:26.198Z,1011
2016-12-02T12:23:32.196Z,1011
2016-12-02T12:24:38.198Z,1011
2016-12-02T12:25:44.198Z,1011
2016-12-02T12:26:50.197Z,1011
2016-12-02T12:27:56.194Z,1011
2016-12-02T12:29:02.190Z,1011
2016-12-02T12:30:08.200Z,1011
2016-12-02T12:31:14.199Z,1011
2016-12-02T12:32:20.201Z,1011
2016-12-02T12:33:26.202Z,1011
2016-12-02T12:34:32.211Z,1011
2016-12-02T12:35:38.206Z,1011
2016-12-02T12:36:44.208Z,1011
2016-12-02T12:37:50.209Z,1011
2016-12-02T12:38:56.213Z,1011
2016-12-02T12:40:02.209Z,1012
2016-12-02T12:41:08.209Z,1011
2016-12-02T12:42:14.216Z,1012
2016-12-02T12:43:20.225Z,1011
2016-12-02T12:44:26.218Z,1012
2016-12-02T12:45:32.220Z,1012
2016-12-02T12:46:38.219Z,1012
2016-12-02T12:48:52.951Z,1011
2016-12-02T12:49:58.946Z,1011
2016-12-02T12:51:04.945Z,1011
2016-12-02T12:52:10.953Z,1012
2016-12-02T12:53:16.949Z,1012
2016-12-02T12:54:22.203Z,1012
2016-12-02T12:55:28.197Z,1011
2016-12-02T12:56:34.201Z,1012
2016-12-02T12:57:40.197Z,1012
2016-12-02T12:58:46.199Z,1012
2016-12-02T12:59:52.195Z,1012
2016-12-02T13:00:58.200Z,1012
2016-12-02T13:02:04.196Z,1011
2016-12-02T13:03:10.194Z,1012
2016-12-02T13:04:16.191Z,1012
2016-12-02T13:05:22.193Z,1012
2016-12-02T13:08:45.644Z,1012
2016-12-02T13:09:51.637Z,1012
2016-12-02T13:10:57.640Z,1012
2016-12-02T13:12:03.642Z,1012
2016-12-02T13:13:09.639Z,1012
2016-12-02T13:14:15.637Z,1012
2016-12-02T13:15:21.833Z,1012
2016-12-02T13:16:27.839Z,1012
2016-12-02T13:17:33.838Z,1012
2016-12-02T13:18:39.838Z,1012
2016-12-02T13:19:45.832Z,1012
2016-12-02T13:20:51.838Z,1012
2016-12-02T13:21:58.034Z,1012
2016-12-02T13:23:04.033Z,1012
2016-12-02T13:24:10.030Z,1012
2016-12-02T13:25:16.031Z,1012
2016-12-02T13:26:22.025Z,1012
2016-12-02T13:27:28.031Z,1012
2016-12-02T13:28:34.034Z,1012
2016-12-02T13:29:40.033Z,1012
2016-12-02T13:30:46.030Z,1012
2016-12-02T13:31:52.032Z,1012
2016-12-02T13:32:58.024Z,1012
2016-12-02T13:34:04.016Z,1012
2016-12-02T13:35:10.012Z,1012
2016-12-02T13:36:16.011Z,1012
2016-12-02T13:37:22.009Z,1012
2016-12-02T13:38:28.018Z,1012
2016-12-02T13:39:34.016Z,1012
2016-12-02T13:40:40.014Z,1012
2016-12-02T13:41:46.009Z,1012
2016-12-02T13:42:52.014Z,1012
2016-12-02T13:43:58.006Z,1012
2016-12-02T13:45:04.012Z,1012
2016-12-02T13:46:11.011Z,1012
2016-12-02T13:47:16.933Z,1012
2016-12-02T13:48:22.926Z,1012
2016-12-02T13:49:28.930Z,1012
2016-12-02T13:50:34.933Z,1012
2016-12-02T13:51:40.933Z,1012
2016-12-02T13:52:46.180Z,1012
2016-12-02T13:53:52.416Z,1012
2016-12-02T13:54:58.415Z,1012
2016-12-02T13:56:04.408Z,1012
2016-12-02T13:57:10.407Z,1012
2016-12-02T13:58:16.405Z,1012
2016-12-02T13:59:22.400Z,1012
2016-12-02T14:00:28.393Z,1012
2016-12-02T14:01:34.387Z,1012
2016-12-02T14:02:40.392Z,1012
2016-12-02T14:04:58.763Z,1012
2016-12-02T14:06:04.760Z,1012
2016-12-02T14:07:10.757Z,1012
2016-12-02T14:08:16.766Z,1012
2016-12-02T14:09:22.844Z,1012
2016-12-02T14:10:28.837Z,1012
2016-12-02T14:11:34.832Z,1012
2016-12-02T14:12:40.838Z,1012
2016-12-02T14:13:46.835Z,1012
2016-12-02T14:14:52.837Z,1012
2016-12-02T14:15:58.831Z,1012
2016-12-02T14:17:04.837Z,1012
2016-12-02T14:18:10.831Z,1012
2016-12-02T14:19:16.825Z,1012
2016-12-02T14:20:22.825Z,1012
2016-12-02T14:21:28.827Z,1012
2016-12-02T14:22:34.822Z,1012
2016-12-02T14:23:40.827Z,1012
2016-12-02T14:24:46.831Z,1012
2016-12-02T14:25:52.831Z,1012
2016-12-02T14:26:58.827Z,1012
2016-12-02T14:28:04.830Z,1012
2016-12-02T14:29:10.829Z,1012
2016-12-02T14:30:17.023Z,1012
2016-12-02T14:31:23.027Z,1012
2016-12-02T14:32:29.025Z,1012
2016-12-02T14:33:35.022Z,1012
2016-12-02T14:34:41.024Z,1012
2016-12-02T14:35:47.022Z,1012
2016-12-02T14:36:53.020Z,1012
2016-12-02T14:37:59.017Z,1012
2016-12-02T14:39:05.025Z,1012
2016-12-02T14:40:11.016Z,1012
2016-12-02T14:41:17.019Z,1012
2016-12-02T14:42:23.020Z,1012
2016-12-02T14:43:29.026Z,1012
2016-12-02T14:44:35.018Z,1012
2016-12-02T14:45:41.023Z,1012
2016-12-02T14:46:47.026Z,1012
2016-12-02T14:49:01.733Z,1012
2016-12-02T14:50:07.728Z,1012
2016-12-02T14:51:13.725Z,1012
2016-12-02T14:52:19.728Z,1012
2016-12-02T14:53:25.738Z,1012
2016-12-02T14:54:31.753Z,1012
2016-12-02T14:55:37.757Z,1012
2016-12-02T14:56:43.759Z,1012
2016-12-02T14:57:49.755Z,1012
2016-12-02T14:58:55.773Z,1012
2016-12-02T15:00:01.770Z,1012
2016-12-02T15:01:07.773Z,1012
2016-12-02T15:02:13.779Z,1012
2016-12-02T15:03:19.775Z,1012
2016-12-02T15:04:25.779Z,1012
2016-12-02T15:05:31.776Z,1012
2016-12-02T15:07:51.248Z,1012
2016-12-02T15:08:57.254Z,1012